Jackson County Reynolds Field
KJXN : rendu visible

Aérodrome :











RETROUVEZ-NOUS SUR...

 
LOGIN :

S'inscrire | Disclaimer

   EN    FR    IT 

 









Légende :    VFR   VFR Marginal   IFR   IFR Intensif   IFR Très Intensif
Visi : 
Plafond : 
>= 8 km
>= 3000ft
5 à 8 km
1000 à 3000 ft
1500m à 5 km
500 à 1000 ft
800 à 1500m
200 à 500 ft
< 800m
< 200 ft
Symboles :   Orages  Brouillard  Fortes neiges  Fortes précipitations  Vent > 20 kt






- Altitude de l'aérodrome : 1001 ft


KJXN - Jackson County Reynolds Field

DERNIER METAR :
  • 121856Z 28009KT 10SM SCT037 BKN046 OVC060 M05/M14 A3031 RMK AO2 SLP280 T10501139

METARs EXPIRÉS :
  • 121756Z 27011G18KT 10SM FEW038 M05/M14 A3031 RMK AO2 SLP279 T10501139 11044 21094 50000
  • 121656Z 28009G18KT 10SM BKN033 M05/M13 A3031 RMK AO2 SLP280 T10501128

TAF KJXN
Valide du 12 à 18h jusqu'au 13 à 18h UTC


121740Z 1218/1318 28010G18KT P6SM BKN035
FM122100 30011KT P6SM SCT100
FM130000 28005KT P6SM SCT200
FM130700 21005KT P6SM SCT200
FM131400 19011KT P6SM BKN100



MET'MAP, la Météo Aéronautique d'un coup d'oeil ! - Copyright ORBIFLY Décembre 2007 - Disclaimer

ORBIFLY MET'MAP TEAM :

Programmation & Développement : Alexandra Zaïnal
Conception & Développement : Baudouin d'Aumeries
Co-Programmation & Développement : Marc-Olivier Méhu
Soutien technique & logistique : Manuel Goepfert

Contact : metmap@orbifly.com




SOURCES & CREDITS :

   NOAA       Earth
Advisory